createdAt,value
2018-11-21T03:15:28.558Z,104.83
2018-11-21T03:18:33.610Z,110.90
2018-11-21T03:21:37.595Z,105.90
2018-11-21T03:24:42.216Z,108.12
2018-11-21T03:27:48.728Z,109.35
2018-11-21T03:34:12.252Z,112.10
2018-11-21T03:37:17.329Z,104.00
2018-11-21T03:40:21.796Z,104.67
2018-11-21T03:43:31.535Z,105.70
2018-11-21T03:46:36.397Z,108.87
2018-11-21T03:49:37.985Z,96.70
2018-11-21T03:52:38.574Z,116.70
2018-11-21T03:55:42.768Z,108.25
2018-11-21T03:58:46.703Z,110.10
2018-11-21T04:01:50.291Z,104.23
2018-11-21T04:04:58.027Z,102.40
2018-11-21T04:08:05.443Z,107.72
2018-11-21T04:11:10.098Z,97.93
2018-11-21T04:14:11.727Z,108.80
2018-11-21T04:17:30.442Z,110.05
2018-11-21T04:20:43.894Z,105.43
2018-11-21T04:23:54.951Z,101.60
2018-11-21T04:27:02.358Z,105.63
2018-11-21T04:30:16.413Z,112.88
2018-11-21T04:33:26.622Z,105.77
2018-11-21T04:39:57.912Z,104.30
2018-11-21T04:42:52.933Z,96.27
2018-11-21T04:46:04.834Z,105.37
2018-11-21T04:59:34.329Z,96.77
2018-11-21T05:02:38.418Z,97.13
2018-11-21T05:12:46.265Z,91.28
2018-11-21T05:15:52.173Z,97.13
2018-11-21T05:15:59.695Z,98.07
2018-11-21T05:19:06.481Z,95.75
2018-11-21T05:22:19.032Z,98.03
2018-11-21T05:25:47.612Z,98.63
2018-11-21T05:42:41.776Z,93.57
2018-11-21T06:35:40.177Z,91.37
2018-11-21T06:45:56.236Z,87.70
2018-11-21T06:52:22.111Z,93.00
2018-11-21T06:55:24.140Z,89.72
2018-11-21T07:05:01.823Z,83.65
2018-11-21T07:08:28.242Z,85.63
2018-11-21T07:12:03.921Z,85.50
2018-11-21T07:15:12.239Z,87.75
